Time;durP1;ratioP1;P1;durP2;ratioP2;P2;SDS_P1;SDS_P2;PMS_P1;PMS_P2;Temp;Humidity;BMP_temperature;BMP_pressure;BME280_temperature;BME280_humidity;BME280_pressure;Samples;Min_cycle;Max_cycle;Signal;HPM_P1;HPM_P2
2023/05/27 00:00:22;;;;;;;9.10;2.67;;;8.90;99.90;;;;;;4056102;29;20539;-85
2023/05/27 00:02:22;;;;;;;12.82;2.78;;;9.00;99.90;;;;;;4072993;29;20440;-84
2023/05/27 00:04:23;;;;;;;7.45;2.25;;;8.90;99.90;;;;;;4072449;29;20154;-84
2023/05/27 00:06:24;;;;;;;13.32;2.75;;;8.90;99.90;;;;;;4072252;29;20044;-84
2023/05/27 00:08:24;;;;;;;9.45;2.30;;;8.90;99.90;;;;;;4071498;29;20524;-84
2023/05/27 00:10:26;;;;;;;10.18;2.20;;;9.10;99.90;;;;;;4073118;29;20601;-84
2023/05/27 00:12:27;;;;;;;14.73;2.92;;;8.80;99.90;;;;;;4072422;29;20501;-84
2023/05/27 00:14:28;;;;;;;11.45;2.40;;;8.70;99.90;;;;;;4072468;29;20184;-84
2023/05/27 00:16:28;;;;;;;8.88;2.30;;;8.80;99.90;;;;;;4071771;29;20052;-85
2023/05/27 00:18:32;;;;;;;8.90;2.17;;;8.70;99.90;;;;;;4071915;29;20127;-85
2023/05/27 00:20:33;;;;;;;8.65;2.10;;;8.70;99.90;;;;;;4072016;29;20492;-85
2023/05/27 00:22:37;;;;;;;10.88;2.13;;;8.70;99.90;;;;;;4071891;29;20100;-85
2023/05/27 00:24:39;;;;;;;6.50;2.10;;;8.60;99.90;;;;;;4055066;29;20096;-85
2023/05/27 00:26:40;;;;;;;7.22;2.20;;;8.60;99.90;;;;;;4071836;29;20408;-85
2023/05/27 00:28:40;;;;;;;15.00;3.17;;;8.60;99.90;;;;;;4072173;29;20044;-85
2023/05/27 00:30:41;;;;;;;8.75;2.53;;;8.60;99.90;;;;;;4071420;29;20052;-85
2023/05/27 00:32:42;;;;;;;7.20;2.90;;;8.60;99.90;;;;;;4070952;29;20507;-85
2023/05/27 00:34:42;;;;;;;10.35;2.45;;;8.60;99.90;;;;;;4071483;29;20055;-85
2023/05/27 00:36:45;;;;;;;11.80;2.35;;;8.50;99.90;;;;;;4071213;29;20083;-84
2023/05/27 00:38:45;;;;;;;13.45;2.95;;;8.50;99.90;;;;;;4071320;29;20051;-84
2023/05/27 00:40:46;;;;;;;11.65;2.50;;;8.50;99.90;;;;;;4071617;29;20119;-85
2023/05/27 00:42:47;;;;;;;12.13;2.50;;;8.50;99.90;;;;;;4054913;29;20189;-84
2023/05/27 00:44:48;;;;;;;7.47;2.25;;;8.50;99.90;;;;;;4071126;29;20048;-85
2023/05/27 00:46:49;;;;;;;11.02;3.42;;;8.50;99.90;;;;;;4072356;29;20408;-85
2023/05/27 00:48:50;;;;;;;13.38;2.72;;;8.50;99.90;;;;;;4071799;29;20449;-84
2023/05/27 00:50:57;;;;;;;8.07;2.60;;;8.50;99.90;;;;;;4071527;29;20048;-84
2023/05/27 00:52:59;;;;;;;10.05;2.55;;;8.50;99.90;;;;;;4072040;29;20124;-84
2023/05/27 00:55:00;;;;;;;12.95;3.15;;;8.40;99.90;;;;;;4071889;29;20044;-85
2023/05/27 00:57:04;;;;;;;6.43;2.15;;;8.40;99.90;;;;;;4071973;29;20103;-85
2023/05/27 00:59:05;;;;;;;14.93;2.97;;;8.40;99.90;;;;;;4071868;29;20046;-84
2023/05/27 01:01:07;;;;;;;10.43;3.20;;;8.30;99.90;;;;;;4071011;29;20531;-85
2023/05/27 01:03:08;;;;;;;9.23;3.35;;;8.30;99.90;;;;;;4071327;29;20099;-84
2023/05/27 01:05:12;;;;;;;12.15;2.60;;;8.30;99.90;;;;;;4063350;29;20040;-85
2023/05/27 01:07:40;;;;;;;10.05;2.92;;;8.30;99.90;;;;;;4070886;29;20489;-85
2023/05/27 01:09:52;;;;;;;13.87;3.30;;;8.30;99.90;;;;;;4071645;29;20059;-85
2023/05/27 01:11:59;;;;;;;7.80;2.25;;;8.20;99.90;;;;;;4071702;29;20283;-85
2023/05/27 01:14:09;;;;;;;17.30;3.22;;;8.20;99.90;;;;;;4071392;29;20492;-86
2023/05/27 01:16:15;;;;;;;13.00;3.05;;;8.10;99.90;;;;;;4072016;29;20060;-85
2023/05/27 01:18:16;;;;;;;11.20;2.38;;;8.20;99.90;;;;;;4071466;29;20054;-84
2023/05/27 01:20:18;;;;;;;12.07;2.90;;;8.20;99.90;;;;;;4071954;29;20400;-85
2023/05/27 01:22:20;;;;;;;10.57;3.33;;;8.20;99.90;;;;;;4072268;29;20058;-85
2023/05/27 01:24:20;;;;;;;10.77;2.65;;;8.20;99.90;;;;;;4071025;29;20412;-85
2023/05/27 01:26:21;;;;;;;19.48;4.00;;;8.30;99.90;;;;;;4071404;29;20040;-85
2023/05/27 01:28:22;;;;;;;13.07;3.85;;;8.30;99.90;;;;;;4070716;29;20103;-85
2023/05/27 01:30:24;;;;;;;10.63;2.80;;;8.80;99.90;;;;;;4054504;29;20540;-85
2023/05/27 01:32:52;;;;;;;9.70;2.63;;;8.30;99.90;;;;;;4070530;29;20123;-85
2023/05/27 01:34:59;;;;;;;9.95;2.50;;;8.40;99.90;;;;;;4071540;29;20048;-85
2023/05/27 01:37:04;;;;;;;11.95;2.80;;;8.40;99.90;;;;;;4054749;29;20057;-85
2023/05/27 01:39:10;;;;;;;7.03;2.40;;;8.50;99.90;;;;;;4071207;29;20139;-85
2023/05/27 01:41:13;;;;;;;8.57;2.60;;;8.50;99.90;;;;;;4071211;29;20080;-85
2023/05/27 01:43:15;;;;;;;15.20;2.97;;;8.50;99.90;;;;;;4071701;29;20032;-85
2023/05/27 01:45:16;;;;;;;10.73;2.47;;;8.50;99.90;;;;;;4071170;29;20498;-86
2023/05/27 01:47:16;;;;;;;11.52;3.88;;;8.50;99.90;;;;;;4071195;29;20063;-86
2023/05/27 01:49:17;;;;;;;12.13;3.00;;;8.50;99.90;;;;;;4071083;29;20126;-86
2023/05/27 01:51:18;;;;;;;13.82;3.00;;;8.50;99.90;;;;;;4071088;29;20124;-85
2023/05/27 01:53:18;;;;;;;11.50;3.03;;;8.60;99.90;;;;;;4071539;29;20044;-85
2023/05/27 01:55:19;;;;;;;15.18;2.50;;;8.60;99.90;;;;;;4071670;29;20408;-86
2023/05/27 01:57:21;;;;;;;9.63;2.83;;;8.50;99.90;;;;;;4071814;29;20052;-85
2023/05/27 01:59:21;;;;;;;11.55;3.95;;;8.50;99.90;;;;;;4070359;29;20075;-85
2023/05/27 02:01:22;;;;;;;12.95;3.22;;;8.50;99.90;;;;;;4071209;29;20044;-85
2023/05/27 02:03:23;;;;;;;13.35;3.17;;;8.50;99.90;;;;;;4071400;29;20406;-85
2023/05/27 02:05:24;;;;;;;14.48;2.72;;;8.50;99.90;;;;;;4071311;29;20144;-85
2023/05/27 02:07:26;;;;;;;11.60;2.78;;;8.40;99.90;;;;;;4071128;29;20044;-85
2023/05/27 02:09:27;;;;;;;10.55;3.15;;;8.40;99.90;;;;;;4070695;29;20052;-85
2023/05/27 02:11:28;;;;;;;12.93;3.15;;;8.40;99.90;;;;;;4071083;29;20040;-85
2023/05/27 02:13:30;;;;;;;13.63;2.80;;;8.40;99.90;;;;;;4070571;29;20052;-85
2023/05/27 02:15:31;;;;;;;16.85;3.72;;;8.20;99.90;;;;;;4071213;29;20032;-85
2023/05/27 02:17:32;;;;;;;10.02;2.10;;;8.20;99.90;;;;;;4071101;29;20103;-85
2023/05/27 02:19:34;;;;;;;9.40;2.70;;;8.10;99.90;;;;;;4070987;29;20048;-85
2023/05/27 02:21:35;;;;;;;11.30;2.35;;;8.10;99.90;;;;;;4070815;29;20048;-86
2023/05/27 02:23:36;;;;;;;10.38;2.42;;;8.10;99.90;;;;;;4071183;29;20135;-85
2023/05/27 02:25:37;;;;;;;8.13;2.78;;;8.10;99.90;;;;;;4070911;29;20086;-85
2023/05/27 02:27:37;;;;;;;9.48;3.50;;;8.10;99.90;;;;;;4070400;29;20074;-85
2023/05/27 02:29:39;;;;;;;11.10;2.85;;;8.10;99.90;;;;;;4070692;29;20496;-85
2023/05/27 02:31:41;;;;;;;5.30;2.30;;;8.10;99.90;;;;;;4070932;29;20040;-85
2023/05/27 02:33:42;;;;;;;8.88;3.25;;;8.20;99.90;;;;;;4054190;29;20087;-86
2023/05/27 02:35:43;;;;;;;9.80;3.17;;;8.20;99.90;;;;;;4070843;29;20044;-85
2023/05/27 02:37:44;;;;;;;10.75;2.42;;;8.20;99.90;;;;;;4070847;29;20044;-85
2023/05/27 02:39:45;;;;;;;12.60;3.15;;;8.20;99.90;;;;;;4070500;29;20056;-85
2023/05/27 02:41:47;;;;;;;14.57;3.95;;;8.20;99.90;;;;;;4070262;29;20385;-85
2023/05/27 02:43:48;;;;;;;12.38;2.40;;;8.50;99.90;;;;;;4070991;29;20062;-85
2023/05/27 02:45:49;;;;;;;10.48;2.60;;;8.30;99.90;;;;;;4070663;29;20056;-86
2023/05/27 02:47:50;;;;;;;12.63;3.08;;;8.30;99.90;;;;;;4070920;29;20075;-85
2023/05/27 02:49:52;;;;;;;18.38;2.72;;;8.40;99.90;;;;;;4070821;29;20047;-86
2023/05/27 02:51:53;;;;;;;13.55;3.85;;;8.30;99.90;;;;;;4070918;29;20055;-85
2023/05/27 02:53:56;;;;;;;10.27;2.38;;;8.30;99.90;;;;;;4070905;29;20469;-86
2023/05/27 02:55:58;;;;;;;12.57;2.83;;;8.30;99.90;;;;;;4070485;29;20058;-85
2023/05/27 02:58:00;;;;;;;10.20;2.80;;;8.40;99.90;;;;;;4070920;29;20732;-85
2023/05/27 03:00:02;;;;;;;13.07;3.20;;;8.30;99.90;;;;;;4070663;29;20052;-85
2023/05/27 03:02:03;;;;;;;17.65;3.35;;;8.30;99.90;;;;;;4071684;29;20036;-85
2023/05/27 03:04:05;;;;;;;9.82;2.25;;;8.30;99.90;;;;;;4071113;29;20055;-85
2023/05/27 03:06:05;;;;;;;13.98;2.70;;;8.30;99.90;;;;;;4071158;29;20378;-85
2023/05/27 03:08:06;;;;;;;8.25;3.15;;;8.20;99.90;;;;;;4054332;29;20067;-85
2023/05/27 03:10:07;;;;;;;11.60;2.80;;;8.40;99.90;;;;;;4070363;29;20075;-85
2023/05/27 03:12:08;;;;;;;10.73;3.08;;;8.10;99.90;;;;;;4071115;29;20052;-85
2023/05/27 03:14:09;;;;;;;13.18;3.78;;;8.20;99.90;;;;;;4069952;29;20079;-85
2023/05/27 03:16:11;;;;;;;10.15;2.53;;;8.30;99.90;;;;;;4070062;29;20123;-85
2023/05/27 03:18:11;;;;;;;14.90;2.63;;;8.20;99.90;;;;;;4070395;29;20582;-86
2023/05/27 03:20:12;;;;;;;15.65;3.20;;;8.30;99.90;;;;;;4070378;29;20056;-85
2023/05/27 03:22:13;;;;;;;13.13;3.50;;;8.40;99.90;;;;;;4070594;29;20052;-85
2023/05/27 03:24:14;;;;;;;10.77;3.30;;;8.20;99.90;;;;;;4053548;29;20053;-85
2023/05/27 03:26:15;;;;;;;9.20;2.22;;;8.30;99.90;;;;;;4053982;29;20505;-86
2023/05/27 03:28:16;;;;;;;14.30;3.08;;;8.30;99.90;;;;;;4053157;29;20059;-86
2023/05/27 03:30:16;;;;;;;14.80;2.65;;;8.30;99.90;;;;;;4070065;29;20071;-86
2023/05/27 03:32:17;;;;;;;14.02;2.67;;;8.30;99.90;;;;;;4073059;29;20038;-85
2023/05/27 03:34:18;;;;;;;13.40;2.50;;;8.40;99.90;;;;;;4073336;29;20092;-85
2023/05/27 03:36:19;;;;;;;10.38;2.42;;;8.30;99.90;;;;;;4073072;29;20108;-85
2023/05/27 03:38:19;;;;;;;11.20;3.00;;;8.40;99.90;;;;;;4072677;29;20047;-85
2023/05/27 03:40:20;;;;;;;15.63;3.42;;;8.30;99.90;;;;;;4072349;29;20082;-86
2023/05/27 03:42:22;;;;;;;10.82;3.15;;;8.50;99.90;;;;;;4073237;29;20052;-85
2023/05/27 03:44:22;;;;;;;11.00;2.53;;;8.40;99.90;;;;;;4073077;29;20047;-85
2023/05/27 03:46:24;;;;;;;13.85;4.45;;;8.50;99.90;;;;;;4055014;29;20453;-85
2023/05/27 03:48:26;;;;;;;16.55;3.33;;;8.50;99.90;;;;;;4056258;29;20071;-85
2023/05/27 03:50:28;;;;;;;7.85;2.50;;;8.60;99.90;;;;;;4072012;29;20052;-85
2023/05/27 03:52:29;;;;;;;10.38;3.08;;;8.60;99.90;;;;;;4072268;29;20496;-85
2023/05/27 03:54:30;;;;;;;12.25;2.30;;;8.70;99.90;;;;;;4054803;29;20060;-85
2023/05/27 03:56:31;;;;;;;10.43;2.92;;;8.70;99.90;;;;;;4072305;29;20044;-85
2023/05/27 03:58:31;;;;;;;12.93;4.05;;;8.70;99.90;;;;;;4072530;29;20131;-86
2023/05/27 04:00:35;;;;;;;16.83;3.35;;;8.80;99.90;;;;;;4072261;29;20523;-86
2023/05/27 04:02:36;;;;;;;12.75;2.60;;;8.80;99.90;;;;;;4072345;29;20154;-85
2023/05/27 04:04:36;;;;;;;12.98;4.25;;;8.80;99.90;;;;;;4072411;29;20134;-85
2023/05/27 04:06:37;;;;;;;10.85;2.58;;;8.90;99.90;;;;;;4072837;29;20054;-86
2023/05/27 04:08:40;;;;;;;10.52;2.42;;;8.90;99.90;;;;;;4071729;29;20084;-85
2023/05/27 04:10:41;;;;;;;14.65;2.97;;;8.90;99.90;;;;;;4071758;29;20052;-85
2023/05/27 04:12:42;;;;;;;9.18;2.15;;;8.90;99.90;;;;;;4071749;29;20052;-85
2023/05/27 04:14:43;;;;;;;12.63;3.05;;;9.00;99.90;;;;;;4070894;29;20048;-86
2023/05/27 04:16:44;;;;;;;12.15;2.42;;;9.00;99.90;;;;;;4071524;29;20044;-85
2023/05/27 04:18:49;;;;;;;14.65;2.75;;;9.00;99.90;;;;;;4070794;29;20058;-86
2023/05/27 04:20:50;;;;;;;12.95;3.20;;;9.00;99.90;;;;;;4071565;29;20518;-85
2023/05/27 04:22:51;;;;;;;15.90;3.22;;;9.10;99.90;;;;;;4070299;29;20055;-85
2023/05/27 04:24:53;;;;;;;14.05;2.53;;;9.10;99.90;;;;;;4071509;29;20099;-85
2023/05/27 04:26:55;;;;;;;9.07;2.45;;;9.10;99.90;;;;;;4071869;29;20056;-86
2023/05/27 04:28:59;;;;;;;11.32;2.42;;;9.20;99.90;;;;;;4054287;29;20563;-86
2023/05/27 04:31:00;;;;;;;20.38;4.15;;;9.20;99.90;;;;;;4055417;29;20481;-86
2023/05/27 04:33:03;;;;;;;10.48;3.05;;;9.30;99.90;;;;;;4071246;29;20051;-86
2023/05/27 04:35:08;;;;;;;16.50;3.72;;;9.30;99.90;;;;;;4071377;29;20594;-86
2023/05/27 04:37:10;;;;;;;10.23;3.40;;;9.40;99.90;;;;;;4063845;29;20079;-85
2023/05/27 04:39:11;;;;;;;21.13;3.33;;;9.40;99.90;;;;;;4070543;29;20064;-86
2023/05/27 04:41:12;;;;;;;9.10;2.70;;;9.50;99.90;;;;;;4072368;29;20084;-85
2023/05/27 04:43:13;;;;;;;7.57;2.58;;;9.50;99.90;;;;;;4070682;29;20040;-86
2023/05/27 04:45:14;;;;;;;16.05;3.90;;;9.60;99.90;;;;;;4073617;29;20036;-85
2023/05/27 04:47:15;;;;;;;13.18;3.28;;;9.60;99.90;;;;;;4073860;29;20075;-86
2023/05/27 04:49:16;;;;;;;8.63;2.85;;;9.60;99.90;;;;;;4074251;29;20400;-86
2023/05/27 04:51:17;;;;;;;10.35;2.80;;;9.60;99.90;;;;;;4055721;29;20105;-86
2023/05/27 04:53:18;;;;;;;11.50;2.60;;;9.70;99.90;;;;;;4072179;29;20055;-86
2023/05/27 04:55:18;;;;;;;15.65;3.20;;;9.60;99.90;;;;;;4070401;29;20499;-85
2023/05/27 04:57:19;;;;;;;12.40;2.65;;;9.70;99.90;;;;;;4070045;29;20050;-85
2023/05/27 04:59:21;;;;;;;13.48;3.25;;;9.70;99.90;;;;;;4070886;29;20048;-85
2023/05/27 05:01:24;;;;;;;10.35;3.15;;;9.70;99.90;;;;;;4072696;29;20100;-86
2023/05/27 05:03:39;;;;;;;10.00;2.55;;;9.70;99.90;;;;;;4073000;29;20055;-86
2023/05/27 05:05:40;;;;;;;21.73;3.60;;;9.70;99.90;;;;;;4073308;29;20507;-86
2023/05/27 05:07:41;;;;;;;13.32;2.90;;;9.70;99.90;;;;;;4071919;29;20048;-86
2023/05/27 05:09:42;;;;;;;14.27;3.22;;;9.80;99.90;;;;;;4072886;29;20048;-86
2023/05/27 05:11:43;;;;;;;12.80;3.80;;;9.80;99.90;;;;;;4069983;29;20051;-86
2023/05/27 05:13:43;;;;;;;8.35;2.75;;;9.70;99.90;;;;;;4070448;29;20489;-85
2023/05/27 05:15:45;;;;;;;16.67;3.65;;;9.80;99.90;;;;;;4070220;29;20405;-85
2023/05/27 05:17:46;;;;;;;14.45;2.80;;;9.80;99.90;;;;;;4071121;29;20047;-86
2023/05/27 05:19:46;;;;;;;12.18;2.72;;;9.90;99.90;;;;;;4070889;29;20048;-85
2023/05/27 05:21:47;;;;;;;13.18;2.67;;;9.90;99.90;;;;;;4070462;29;20044;-86
2023/05/27 05:23:48;;;;;;;12.68;3.40;;;9.90;99.90;;;;;;4071143;29;20088;-86
2023/05/27 05:25:54;;;;;;;10.88;2.45;;;10.00;99.90;;;;;;4053078;29;20747;-86
2023/05/27 05:27:55;;;;;;;17.00;2.78;;;9.90;99.90;;;;;;4070715;29;20044;-86
2023/05/27 05:29:56;;;;;;;14.68;3.95;;;10.00;99.90;;;;;;4070221;29;20523;-86
2023/05/27 05:31:58;;;;;;;11.57;3.17;;;10.00;99.90;;;;;;4070983;29;20048;-85
2023/05/27 05:33:58;;;;;;;12.38;2.78;;;10.10;99.90;;;;;;4070730;29;20495;-84
2023/05/27 05:36:00;;;;;;;12.43;2.67;;;10.10;99.90;;;;;;4070326;29;20130;-85
2023/05/27 05:38:01;;;;;;;16.80;3.10;;;10.10;99.90;;;;;;4070587;29;20131;-85
2023/05/27 05:40:02;;;;;;;18.33;4.13;;;10.10;99.90;;;;;;4069301;29;20056;-85
2023/05/27 05:42:04;;;;;;;8.70;2.55;;;10.20;99.90;;;;;;4070568;29;20044;-85
2023/05/27 05:44:05;;;;;;;15.38;3.65;;;10.20;99.90;;;;;;4070435;29;20051;-85
2023/05/27 05:46:06;;;;;;;16.50;3.25;;;10.20;99.90;;;;;;4071839;29;20048;-84
2023/05/27 05:48:06;;;;;;;14.93;3.90;;;10.30;99.90;;;;;;4071159;29;20131;-85
2023/05/27 05:50:07;;;;;;;13.98;2.95;;;10.30;99.90;;;;;;4070770;29;20047;-85
2023/05/27 05:52:10;;;;;;;14.07;2.85;;;10.40;99.90;;;;;;4070830;29;20044;-84
2023/05/27 05:54:11;;;;;;;14.15;3.00;;;10.50;99.90;;;;;;4070176;29;20058;-86
2023/05/27 05:56:12;;;;;;;15.70;3.90;;;10.60;99.90;;;;;;4071420;29;20040;-84
2023/05/27 05:58:13;;;;;;;20.02;3.60;;;10.70;99.90;;;;;;4070094;29;20062;-85
2023/05/27 06:00:14;;;;;;;14.65;3.58;;;10.90;99.90;;;;;;4070983;29;20546;-85
2023/05/27 06:02:15;;;;;;;11.50;3.40;;;11.00;99.90;;;;;;4070096;29;20693;-85
2023/05/27 06:04:17;;;;;;;20.60;3.58;;;11.10;99.90;;;;;;4071548;29;20474;-84
2023/05/27 06:06:17;;;;;;;20.77;3.20;;;11.20;99.90;;;;;;4077059;29;20059;-84
2023/05/27 06:08:18;;;;;;;19.95;3.58;;;11.30;99.90;;;;;;4071583;29;20108;-84
2023/05/27 06:10:19;;;;;;;13.25;3.53;;;11.40;99.90;;;;;;4055339;29;20055;-84
2023/05/27 06:12:20;;;;;;;13.68;3.63;;;11.50;99.90;;;;;;4072125;29;20040;-84
2023/05/27 06:14:22;;;;;;;19.60;3.05;;;11.60;99.90;;;;;;4072115;29;20051;-84
2023/05/27 06:16:22;;;;;;;12.18;3.05;;;11.60;99.90;;;;;;4072977;29;20055;-84
2023/05/27 06:18:23;;;;;;;19.77;3.63;;;11.60;99.90;;;;;;4072837;29;20047;-84
2023/05/27 06:20:28;;;;;;;17.52;4.38;;;11.70;99.90;;;;;;4073492;29;20487;-84
2023/05/27 06:22:30;;;;;;;20.30;3.50;;;11.80;99.90;;;;;;4071138;29;20052;-84
2023/05/27 06:24:32;;;;;;;19.63;3.38;;;11.80;99.90;;;;;;4071044;29;20404;-83
2023/05/27 06:26:32;;;;;;;17.38;3.63;;;11.90;99.90;;;;;;4054137;29;20049;-84
2023/05/27 06:28:34;;;;;;;15.98;3.42;;;11.90;99.90;;;;;;4055927;29;20059;-84
2023/05/27 06:30:36;;;;;;;17.85;4.32;;;12.00;99.90;;;;;;4071570;29;20151;-84
2023/05/27 06:32:37;;;;;;;14.88;3.20;;;12.10;99.90;;;;;;4071401;29;20036;-84
2023/05/27 06:34:39;;;;;;;12.88;2.75;;;12.20;99.90;;;;;;4070992;29;20044;-84
2023/05/27 06:36:41;;;;;;;16.45;4.28;;;12.30;99.90;;;;;;4070916;29;20055;-84
2023/05/27 06:38:41;;;;;;;15.38;2.75;;;12.40;99.90;;;;;;4070825;29;20094;-83
2023/05/27 06:40:42;;;;;;;14.15;3.13;;;12.40;99.90;;;;;;4070364;29;20048;-84
2023/05/27 06:42:44;;;;;;;13.93;3.95;;;12.60;99.90;;;;;;4071708;29;20040;-83
2023/05/27 06:44:45;;;;;;;16.85;4.32;;;12.70;99.90;;;;;;4071053;29;20143;-84
2023/05/27 06:46:46;;;;;;;16.60;3.88;;;12.90;99.90;;;;;;4071589;29;20139;-84
2023/05/27 06:48:49;;;;;;;17.50;3.20;;;13.00;99.90;;;;;;4071733;29;20384;-84
2023/05/27 06:50:52;;;;;;;14.27;2.33;;;13.10;99.90;;;;;;4072931;29;20044;-84
2023/05/27 06:52:53;;;;;;;12.23;2.70;;;13.20;99.90;;;;;;4072478;29;20052;-85
2023/05/27 06:54:54;;;;;;;12.80;3.58;;;13.30;99.90;;;;;;4055458;29;20059;-85
2023/05/27 06:56:55;;;;;;;17.45;4.68;;;13.40;99.90;;;;;;4071660;29;20052;-85
2023/05/27 06:58:57;;;;;;;17.13;3.00;;;13.30;99.90;;;;;;4054351;29;20112;-83
2023/05/27 07:00:58;;;;;;;12.75;3.63;;;13.30;99.90;;;;;;4071256;29;20058;-84
2023/05/27 07:03:00;;;;;;;18.55;4.35;;;13.40;99.90;;;;;;4070214;29;20540;-85
2023/05/27 07:05:01;;;;;;;16.83;3.78;;;13.50;99.90;;;;;;4071513;29;20052;-84
2023/05/27 07:07:03;;;;;;;15.77;3.83;;;13.50;99.90;;;;;;4071567;29;20123;-84
2023/05/27 07:09:04;;;;;;;17.27;3.97;;;13.70;99.90;;;;;;4070558;29;20065;-84
2023/05/27 07:11:06;;;;;;;19.42;4.25;;;13.80;99.90;;;;;;4054723;29;20049;-84
2023/05/27 07:13:09;;;;;;;13.57;3.05;;;13.90;99.90;;;;;;4072741;29;20044;-85
2023/05/27 07:15:10;;;;;;;12.27;3.28;;;14.00;99.90;;;;;;4070939;29;20044;-84
2023/05/27 07:17:10;;;;;;;15.48;4.28;;;14.10;99.90;;;;;;4069583;29;20055;-83
2023/05/27 07:19:11;;;;;;;15.57;3.50;;;14.10;99.90;;;;;;4069721;29;20103;-83
2023/05/27 07:21:13;;;;;;;14.98;3.38;;;14.20;99.90;;;;;;4070460;29;20048;-83
2023/05/27 07:23:15;;;;;;;17.67;3.33;;;14.30;99.90;;;;;;4070920;29;20126;-83
2023/05/27 07:25:16;;;;;;;13.32;3.60;;;14.40;99.90;;;;;;4070494;29;20044;-85
2023/05/27 07:27:16;;;;;;;15.32;2.55;;;14.60;99.90;;;;;;4071184;29;20059;-83
2023/05/27 07:29:17;;;;;;;12.00;2.70;;;14.70;99.90;;;;;;4069557;29;20056;-82
2023/05/27 07:31:18;;;;;;;9.85;3.05;;;14.90;99.90;;;;;;4068309;29;20066;-82
2023/05/27 07:33:19;;;;;;;12.38;4.07;;;15.10;99.90;;;;;;4069053;29;20123;-83
2023/05/27 07:35:20;;;;;;;21.67;3.90;;;15.20;99.90;;;;;;4068203;29;20051;-82
2023/05/27 07:37:22;;;;;;;12.18;3.95;;;15.30;99.90;;;;;;4068950;29;20040;-83
2023/05/27 07:39:23;;;;;;;12.00;2.58;;;15.30;99.90;;;;;;4069290;29;20060;-84
2023/05/27 07:41:24;;;;;;;15.73;3.10;;;15.40;99.90;;;;;;4069303;29;20134;-83
2023/05/27 07:43:25;;;;;;;15.45;3.33;;;15.40;99.90;;;;;;4052840;29;20512;-83
2023/05/27 07:45:25;;;;;;;18.42;3.63;;;15.50;99.90;;;;;;4068476;29;20099;-83
2023/05/27 07:47:26;;;;;;;11.45;3.15;;;15.70;99.90;;;;;;4069487;29;20044;-84
2023/05/27 07:49:28;;;;;;;10.48;2.85;;;15.70;99.90;;;;;;4069178;29;20449;-83
2023/05/27 07:51:30;;;;;;;15.48;3.53;;;15.70;99.90;;;;;;4069698;29;20135;-82
2023/05/27 07:53:31;;;;;;;15.15;3.60;;;15.90;99.90;;;;;;4069495;29;20058;-82
2023/05/27 07:55:31;;;;;;;13.18;3.78;;;16.00;99.90;;;;;;4068093;29;20130;-82
2023/05/27 07:57:32;;;;;;;16.58;3.33;;;16.10;99.90;;;;;;4052724;29;20045;-81
2023/05/27 07:59:33;;;;;;;14.23;3.42;;;16.00;99.90;;;;;;4068406;29;20051;-82
2023/05/27 08:01:34;;;;;;;15.32;3.15;;;16.00;99.90;;;;;;4069502;29;20040;-83
2023/05/27 08:03:35;;;;;;;14.80;3.08;;;16.20;99.90;;;;;;4068810;29;20519;-83
2023/05/27 08:05:36;;;;;;;12.52;3.28;;;16.40;99.90;;;;;;4069794;29;20096;-83
2023/05/27 08:07:37;;;;;;;14.15;3.83;;;16.60;99.90;;;;;;4052130;29;20149;-83
2023/05/27 08:09:39;;;;;;;18.08;4.68;;;16.80;99.90;;;;;;4068699;29;20048;-83
2023/05/27 08:11:39;;;;;;;13.68;3.58;;;16.90;99.90;;;;;;4068857;29;20066;-83
2023/05/27 08:13:40;;;;;;;12.52;4.18;;;17.00;99.90;;;;;;4068676;29;20052;-83
2023/05/27 08:15:41;;;;;;;16.95;4.18;;;17.00;99.90;;;;;;4069221;29;20044;-84
2023/05/27 08:17:43;;;;;;;16.27;2.63;;;17.00;99.90;;;;;;4053882;29;20057;-84
2023/05/27 08:19:44;;;;;;;12.07;4.13;;;17.30;99.90;;;;;;4071705;29;20044;-84
2023/05/27 08:21:46;;;;;;;13.80;3.28;;;17.40;99.90;;;;;;4070944;29;20132;-81
2023/05/27 08:23:47;;;;;;;16.58;3.15;;;17.40;99.90;;;;;;4054056;29;20127;-83
2023/05/27 08:25:47;;;;;;;18.23;3.65;;;17.40;99.90;;;;;;4071950;29;20408;-83
2023/05/27 08:27:54;;;;;;;15.00;3.80;;;17.40;99.90;;;;;;4071184;29;20052;-83
2023/05/27 08:29:55;;;;;;;13.10;3.20;;;17.50;99.90;;;;;;4071581;29;20097;-83
2023/05/27 08:31:56;;;;;;;15.10;3.42;;;17.50;99.90;;;;;;4070979;29;20480;-83
2023/05/27 08:33:57;;;;;;;13.20;4.32;;;17.60;99.90;;;;;;4071026;29;20044;-83
2023/05/27 08:35:59;;;;;;;14.85;3.38;;;17.50;99.90;;;;;;4071109;29;20543;-83
2023/05/27 08:37:59;;;;;;;18.77;4.32;;;17.40;99.90;;;;;;4071399;29;20493;-81
2023/05/27 08:40:00;;;;;;;19.38;4.82;;;17.30;99.90;;;;;;4070733;29;20056;-82
2023/05/27 08:42:02;;;;;;;10.15;3.25;;;17.50;99.90;;;;;;4071070;29;20047;-82
2023/05/27 08:44:03;;;;;;;15.68;3.22;;;17.70;99.90;;;;;;4071417;29;20492;-82
2023/05/27 08:46:04;;;;;;;16.50;3.85;;;17.80;99.90;;;;;;4070684;29;20040;-82
2023/05/27 08:48:08;;;;;;;11.82;3.67;;;17.80;99.90;;;;;;4071223;29;20055;-82
2023/05/27 08:50:09;;;;;;;14.77;3.38;;;18.00;99.90;;;;;;4070371;29;20441;-83
2023/05/27 08:52:11;;;;;;;18.70;5.80;;;18.00;99.90;;;;;;4071183;29;20040;-82
2023/05/27 08:54:12;;;;;;;20.25;4.75;;;17.90;99.90;;;;;;4071319;29;20051;-82
2023/05/27 08:56:16;;;;;;;15.48;3.85;;;17.90;99.90;;;;;;4070794;29;20044;-84
2023/05/27 08:58:17;;;;;;;15.57;3.78;;;18.20;99.90;;;;;;4071559;29;20044;-82
2023/05/27 09:00:19;;;;;;;8.40;3.15;;;18.50;99.90;;;;;;4070822;29;20394;-83
2023/05/27 09:02:21;;;;;;;10.88;3.25;;;18.70;99.90;;;;;;4070979;29;20493;-83
2023/05/27 09:04:22;;;;;;;18.25;3.95;;;18.90;99.90;;;;;;4069940;29;20126;-83
2023/05/27 09:06:23;;;;;;;19.30;3.25;;;19.10;99.90;;;;;;4054021;29;20172;-83
2023/05/27 09:08:24;;;;;;;12.60;3.95;;;19.10;99.90;;;;;;4071085;29;20408;-82
2023/05/27 09:10:38;;;;;;;12.95;3.20;;;19.20;99.90;;;;;;4070289;29;20481;-81
2023/05/27 09:12:43;;;;;;;15.27;3.42;;;19.40;99.90;;;;;;4054265;29;20055;-82
2023/05/27 09:14:50;;;;;;;15.07;2.95;;;19.60;99.90;;;;;;4052916;29;20067;-82
2023/05/27 09:16:51;;;;;;;13.48;3.22;;;19.80;99.90;;;;;;4070074;29;20052;-82
2023/05/27 09:18:52;;;;;;;10.82;3.38;;;20.10;99.90;;;;;;4070320;29;20051;-83
2023/05/27 09:20:55;;;;;;;13.02;3.50;;;20.10;99.90;;;;;;4069650;29;20393;-82
2023/05/27 09:23:00;;;;;;;9.00;2.80;;;19.80;99.90;;;;;;4070598;29;20056;-82
2023/05/27 09:25:02;;;;;;;13.98;3.03;;;19.80;99.90;;;;;;4069654;29;20122;-82
2023/05/27 09:27:04;;;;;;;13.18;3.45;;;20.00;99.90;;;;;;4070271;29;20078;-82
2023/05/27 09:29:08;;;;;;;19.63;2.97;;;20.10;99.90;;;;;;4069523;29;20048;-82
2023/05/27 09:31:09;;;;;;;15.00;3.20;;;20.20;99.90;;;;;;4052760;29;20067;-82
2023/05/27 09:33:10;;;;;;;11.25;2.92;;;20.30;99.90;;;;;;4053380;29;20092;-82
2023/05/27 09:35:12;;;;;;;14.75;3.70;;;20.40;99.90;;;;;;4069478;29;20041;-82
2023/05/27 09:37:17;;;;;;;13.57;3.50;;;20.40;99.90;;;;;;4070184;29;20411;-82
2023/05/27 09:39:19;;;;;;;15.18;2.70;;;20.40;99.60;;;;;;4069147;29;20060;-82
2023/05/27 09:41:26;;;;;;;13.65;2.67;;;20.60;99.60;;;;;;4069324;29;20126;-82
2023/05/27 09:43:29;;;;;;;16.67;4.13;;;20.80;98.90;;;;;;4070215;29;20408;-82
2023/05/27 09:45:29;;;;;;;15.25;5.38;;;20.60;98.90;;;;;;4069471;29;20044;-82
2023/05/27 09:47:30;;;;;;;14.90;3.10;;;20.60;98.90;;;;;;4070515;29;20044;-81
2023/05/27 09:49:34;;;;;;;11.88;2.80;;;20.70;99.00;;;;;;4069310;29;20056;-82
2023/05/27 09:51:37;;;;;;;11.93;2.78;;;21.00;98.40;;;;;;4069649;29;20059;-82
2023/05/27 09:53:38;;;;;;;8.80;3.67;;;21.30;98.30;;;;;;4070323;29;20412;-82
2023/05/27 09:55:43;;;;;;;17.63;3.90;;;21.50;98.30;;;;;;4069822;29;20468;-83
2023/05/27 09:57:44;;;;;;;12.38;3.63;;;21.50;97.70;;;;;;4071011;29;20052;-82
2023/05/27 09:59:47;;;;;;;14.40;3.38;;;21.40;97.40;;;;;;4052866;29;20068;-82
2023/05/27 10:01:49;;;;;;;14.18;3.45;;;21.30;96.70;;;;;;4070040;29;20056;-82
2023/05/27 10:03:51;;;;;;;10.75;2.75;;;21.40;97.00;;;;;;4070452;29;20052;-82
2023/05/27 10:05:52;;;;;;;10.88;3.08;;;21.50;97.00;;;;;;4069351;29;20040;-82
2023/05/27 10:07:52;;;;;;;20.30;3.60;;;21.70;96.90;;;;;;4070206;29;20052;-82
2023/05/27 10:09:54;;;;;;;22.88;4.40;;;21.90;96.50;;;;;;4069631;29;20055;-82
2023/05/27 10:11:55;;;;;;;15.40;4.32;;;22.10;96.60;;;;;;4071072;29;20055;-83
2023/05/27 10:13:56;;;;;;;12.43;4.85;;;22.30;96.80;;;;;;4069894;29;20056;-83
2023/05/27 10:15:57;;;;;;;9.50;2.65;;;22.60;96.60;;;;;;4070999;29;20083;-82
2023/05/27 10:18:05;;;;;;;12.05;3.25;;;22.80;96.30;;;;;;4070134;29;20080;-82
2023/05/27 10:20:07;;;;;;;;;;;;;;;;;;4070387;29;20532;-83
2023/05/27 10:22:10;;;;;;;9.20;2.75;;;;;;;;;;4063431;29;19923;-82
2023/05/27 10:24:12;;;;;;;10.27;2.60;;;22.80;95.40;;;;;;4069343;29;20372;-83
2023/05/27 10:26:12;;;;;;;14.57;2.97;;;22.70;94.70;;;;;;4069093;29;20051;-82
2023/05/27 10:28:35;;;;;;;13.00;3.40;;;22.90;94.70;;;;;;4070500;29;20134;-84
2023/05/27 10:30:46;;;;;;;15.73;3.13;;;23.10;93.70;;;;;;4069514;29;20060;-86